Time;durP1;ratioP1;P1;durP2;ratioP2;P2;SDS_P1;SDS_P2;PMS_P1;PMS_P2;Temp;Humidity;BMP_temperature;BMP_pressure;BME280_temperature;BME280_humidity;BME280_pressure;Samples;Min_cycle;Max_cycle;Signal;HPM_P1;HPM_P2
2022/01/11 00:01:42;;;;;;;19.03;9.83;;;2.30;99.90;;;;;;5068090;28;20407;-68
2022/01/11 00:04:09;;;;;;;27.13;11.40;;;2.10;99.90;;;;;;5068193;28;20173;-69
2022/01/11 00:06:39;;;;;;;22.93;10.57;;;1.90;99.90;;;;;;5078821;28;20433;-68
2022/01/11 00:09:19;;;;;;;21.50;11.50;;;2.00;99.90;;;;;;5066441;28;20415;-68
2022/01/11 00:11:46;;;;;;;21.40;10.23;;;2.40;99.90;;;;;;5067573;28;20395;-69
2022/01/11 00:14:12;;;;;;;20.17;11.00;;;2.00;99.90;;;;;;5067128;28;20448;-69
2022/01/11 00:16:37;;;;;;;21.73;10.67;;;2.10;99.90;;;;;;5067070;28;20445;-69
2022/01/11 00:19:06;;;;;;;23.83;11.00;;;2.20;99.90;;;;;;5068112;28;20238;-68
2022/01/11 00:21:33;;;;;;;23.00;11.60;;;2.20;99.90;;;;;;5066579;28;20246;-69
2022/01/11 00:26:42;;;;;;;26.73;11.60;;;2.40;99.90;;;;;;5066388;28;20465;-68
2022/01/11 00:29:08;;;;;;;21.00;11.20;;;2.50;99.90;;;;;;5067835;28;20423;-68
2022/01/11 00:31:34;;;;;;;23.10;10.77;;;;;;;;;;5067277;28;20210;-68
2022/01/11 00:34:01;;;;;;;28.63;12.00;;;2.50;99.90;;;;;;5066849;28;20562;-68
2022/01/11 00:36:40;;;;;;;19.17;11.00;;;2.50;99.90;;;;;;5074166;28;20434;-68
2022/01/11 00:39:05;;;;;;;20.50;11.60;;;2.60;99.90;;;;;;5068550;28;20513;-69
2022/01/11 00:41:31;;;;;;;21.53;11.80;;;2.70;99.90;;;;;;5070836;28;20406;-68
2022/01/11 00:43:57;;;;;;;24.50;11.80;;;2.70;99.90;;;;;;5071132;28;20540;-67
2022/01/11 00:46:22;;;;;;;27.27;12.13;;;2.60;99.90;;;;;;5070876;28;20200;-68
2022/01/11 00:48:48;;;;;;;19.30;11.73;;;2.60;99.90;;;;;;5071578;28;20552;-68
2022/01/11 00:51:13;;;;;;;20.40;11.27;;;2.70;99.90;;;;;;5070967;28;20660;-69
2022/01/11 00:53:41;;;;;;;26.13;11.67;;;4.10;99.90;;;;;;5070521;28;20169;-69
2022/01/11 00:56:06;;;;;;;20.37;11.60;;;2.80;99.90;;;;;;5070810;28;20267;-69
2022/01/11 00:58:32;;;;;;;23.40;11.83;;;2.80;99.90;;;;;;5071651;28;20582;-69
2022/01/11 01:00:58;;;;;;;19.73;10.80;;;;;;;;;;5071168;28;20173;-68
2022/01/11 01:03:24;;;;;;;25.60;11.00;;;2.80;99.90;;;;;;5071489;28;20164;-68
2022/01/11 01:05:50;;;;;;;18.30;11.33;;;2.80;99.90;;;;;;5078778;28;20543;-69
2022/01/11 01:08:16;;;;;;;23.17;11.33;;;2.80;99.90;;;;;;5072502;28;20430;-69
2022/01/11 01:10:46;;;;;;;21.07;11.20;;;3.00;99.90;;;;;;5070756;28;20429;-69
2022/01/11 01:13:18;;;;;;;19.23;11.37;;;2.90;99.90;;;;;;5070126;28;20183;-68
2022/01/11 01:15:49;;;;;;;22.63;10.80;;;2.90;99.90;;;;;;5070968;28;20431;-69
2022/01/11 01:18:17;;;;;;;27.47;13.40;;;2.90;99.90;;;;;;5070586;28;20458;-69
2022/01/11 01:20:44;;;;;;;30.20;14.20;;;2.90;99.90;;;;;;5070903;28;20410;-69
2022/01/11 01:23:10;;;;;;;25.57;15.57;;;2.90;99.90;;;;;;5069480;28;20785;-69
2022/01/11 01:25:36;;;;;;;32.07;15.77;;;;;;;;;;5071089;28;20524;-69
2022/01/11 01:28:02;;;;;;;34.07;15.87;;;3.00;99.90;;;;;;5068882;28;20928;-69
2022/01/11 01:30:28;;;;;;;26.80;14.50;;;;;;;;;;5070881;28;20521;-69
2022/01/11 01:32:53;;;;;;;35.80;14.30;;;3.00;99.90;;;;;;5070806;28;20176;-68
2022/01/11 01:35:23;;;;;;;24.63;13.80;;;3.00;99.90;;;;;;5071699;28;20533;-68
2022/01/11 01:37:49;;;;;;;31.70;14.77;;;3.30;99.90;;;;;;5075656;28;20195;-68
2022/01/11 01:40:19;;;;;;;25.83;13.47;;;3.30;99.90;;;;;;5070504;28;20783;-68
2022/01/11 01:42:47;;;;;;;25.90;13.83;;;3.10;99.90;;;;;;5070115;28;20169;-68
2022/01/11 01:45:12;;;;;;;31.87;13.87;;;2.90;99.90;;;;;;5069397;28;20579;-69
2022/01/11 01:47:38;;;;;;;29.67;13.53;;;3.40;99.90;;;;;;5065781;28;20430;-69
2022/01/11 01:50:05;;;;;;;25.77;14.17;;;2.90;99.90;;;;;;5067406;28;20246;-69
2022/01/11 01:52:32;;;;;;;24.00;13.47;;;3.00;99.90;;;;;;5069562;28;20173;-68
2022/01/11 01:54:57;;;;;;;22.97;12.67;;;3.10;99.90;;;;;;5070086;28;20474;-68
2022/01/11 01:57:24;;;;;;;26.47;12.73;;;3.40;99.90;;;;;;5069204;28;20462;-68
2022/01/11 01:59:50;;;;;;;22.50;12.13;;;3.10;99.90;;;;;;5070272;28;20180;-68
2022/01/11 02:02:15;;;;;;;25.60;12.10;;;3.10;99.90;;;;;;5070048;28;20410;-68
2022/01/11 02:04:42;;;;;;;23.67;12.70;;;;;;;;;;5072825;28;20176;-69
2022/01/11 02:07:08;;;;;;;26.20;13.10;;;3.10;99.90;;;;;;5081404;28;20196;-68
2022/01/11 02:09:33;;;;;;;22.77;11.60;;;3.10;99.90;;;;;;5077439;28;20423;-68
2022/01/11 02:11:59;;;;;;;27.40;12.93;;;3.10;99.90;;;;;;5067752;28;20414;-69
2022/01/11 02:14:26;;;;;;;23.70;12.87;;;;;;;;;;5069662;28;20185;-68
2022/01/11 02:16:53;;;;;;;24.63;12.13;;;3.00;99.90;;;;;;5069137;28;20887;-68
2022/01/11 02:19:19;;;;;;;31.40;13.00;;;3.00;99.90;;;;;;5070098;28;20425;-69
2022/01/11 02:21:45;;;;;;;24.80;13.13;;;2.90;99.90;;;;;;5068822;28;20419;-69
2022/01/11 02:24:10;;;;;;;25.40;13.17;;;2.90;99.90;;;;;;5068144;28;20203;-69
2022/01/11 02:26:36;;;;;;;27.80;12.73;;;2.90;99.90;;;;;;5069144;28;20193;-68
2022/01/11 02:29:02;;;;;;;25.17;13.00;;;2.80;99.90;;;;;;5070126;28;20185;-69
2022/01/11 02:31:28;;;;;;;22.90;12.77;;;3.10;99.90;;;;;;5069287;28;20173;-68
2022/01/11 02:33:58;;;;;;;26.07;12.13;;;2.90;99.90;;;;;;5067880;28;20775;-68
2022/01/11 02:36:30;;;;;;;27.57;12.77;;;2.90;99.90;;;;;;5076933;28;20434;-68
2022/01/11 02:38:57;;;;;;;23.03;11.13;;;2.90;99.90;;;;;;5068661;28;20426;-69
2022/01/11 02:41:27;;;;;;;25.47;12.10;;;3.00;99.90;;;;;;5069087;28;20395;-69
2022/01/11 02:43:53;;;;;;;20.40;11.97;;;3.00;99.90;;;;;;5068195;28;20419;-68
2022/01/11 02:46:20;;;;;;;19.50;11.40;;;3.00;99.90;;;;;;5068480;28;20453;-68
2022/01/11 02:48:47;;;;;;;27.33;12.17;;;3.00;99.90;;;;;;5068013;28;20294;-68
2022/01/11 02:51:12;;;;;;;25.10;11.70;;;2.90;99.90;;;;;;5083604;28;20434;-68
2022/01/11 02:53:42;;;;;;;27.30;11.60;;;2.90;99.90;;;;;;5067366;28;20441;-69
2022/01/11 02:56:08;;;;;;;22.30;11.50;;;3.00;99.90;;;;;;5068399;28;20203;-69
2022/01/11 02:58:34;;;;;;;22.63;12.10;;;3.00;99.90;;;;;;5069006;28;20473;-68
2022/01/11 03:01:00;;;;;;;23.27;11.90;;;2.90;99.90;;;;;;5067960;28;20414;-69
2022/01/11 03:03:25;;;;;;;23.93;11.30;;;2.90;99.90;;;;;;5068393;28;20266;-68
2022/01/11 03:05:54;;;;;;;21.83;11.00;;;3.00;99.90;;;;;;5077052;28;20207;-68
2022/01/11 03:08:21;;;;;;;25.47;11.30;;;3.00;99.90;;;;;;5070028;28;20192;-69
2022/01/11 03:10:49;;;;;;;26.37;11.47;;;3.00;99.90;;;;;;5067056;28;20512;-68
2022/01/11 03:13:16;;;;;;;20.50;11.10;;;3.60;99.90;;;;;;5067865;28;20425;-68
2022/01/11 03:15:42;;;;;;;25.83;11.00;;;3.10;99.90;;;;;;5068192;28;20467;-68
2022/01/11 03:18:08;;;;;;;19.30;11.47;;;3.10;99.90;;;;;;5068513;28;20580;-69
2022/01/11 03:20:36;;;;;;;22.43;11.70;;;3.10;99.90;;;;;;5068730;28;20512;-68
2022/01/11 03:23:02;;;;;;;20.37;10.47;;;3.20;99.90;;;;;;5067757;28;20820;-69
2022/01/11 03:25:27;;;;;;;18.53;11.70;;;3.00;99.90;;;;;;5067101;28;20439;-69
2022/01/11 03:27:53;;;;;;;21.73;11.03;;;3.20;99.90;;;;;;5067886;28;20798;-69
2022/01/11 03:30:19;;;;;;;25.47;11.40;;;3.20;99.90;;;;;;5068914;28;20181;-69
2022/01/11 03:32:46;;;;;;;21.63;10.20;;;2.90;99.90;;;;;;5067175;28;20173;-68
2022/01/11 03:35:12;;;;;;;21.43;11.33;;;3.00;99.90;;;;;;5076110;28;20673;-69
2022/01/11 03:37:40;;;;;;;21.90;10.97;;;3.00;99.90;;;;;;5076868;28;20561;-68
2022/01/11 03:40:09;;;;;;;28.33;12.13;;;3.00;99.90;;;;;;5068884;28;20942;-69
2022/01/11 03:42:35;;;;;;;20.57;11.33;;;2.90;99.90;;;;;;5066058;28;20415;-69
2022/01/11 03:45:00;;;;;;;24.70;12.03;;;2.60;99.90;;;;;;5067951;28;20446;-69
2022/01/11 03:47:26;;;;;;;18.70;10.90;;;3.00;99.90;;;;;;5068039;28;20176;-69
2022/01/11 03:49:52;;;;;;;25.47;11.50;;;2.80;99.90;;;;;;5057406;28;20227;-69
2022/01/11 03:52:18;;;;;;;21.67;10.77;;;;;;;;;;5066708;28;20176;-69
2022/01/11 03:57:25;;;;;;;26.40;12.40;;;2.80;99.90;;;;;;5067139;28;20786;-69
2022/01/11 03:59:51;;;;;;;20.53;11.03;;;2.80;99.90;;;;;;5068343;28;20414;-68
2022/01/11 04:02:17;;;;;;;20.20;12.07;;;;;;;;;;5067617;28;20430;-68
2022/01/11 04:04:43;;;;;;;23.97;11.37;;;2.70;99.90;;;;;;5072972;28;20523;-68
2022/01/11 04:07:10;;;;;;;24.27;12.30;;;2.60;99.90;;;;;;5079375;28;20502;-68
2022/01/11 04:09:35;;;;;;;22.57;12.40;;;2.60;99.90;;;;;;5069733;28;20426;-68
2022/01/11 04:12:01;;;;;;;26.27;11.77;;;2.60;99.90;;;;;;5067066;28;20423;-69
2022/01/11 04:14:27;;;;;;;21.13;11.27;;;;;;;;;;5067907;28;20184;-69
2022/01/11 04:16:53;;;;;;;32.97;12.57;;;2.60;99.90;;;;;;5065965;28;20308;-68
2022/01/11 04:19:19;;;;;;;22.67;12.37;;;2.60;99.90;;;;;;5067933;28;20184;-68
2022/01/11 04:21:45;;;;;;;24.13;12.07;;;;;;;;;;5065611;28;20173;-68
2022/01/11 04:24:12;;;;;;;23.60;12.87;;;2.60;99.90;;;;;;5067422;28;20501;-69
2022/01/11 04:26:38;;;;;;;24.93;11.83;;;2.70;99.90;;;;;;5065882;28;20549;-69
2022/01/11 04:29:04;;;;;;;27.00;12.63;;;;;;;;;;5068036;28;20522;-68
2022/01/11 04:31:30;;;;;;;21.70;11.77;;;;;;;;;;5067440;28;20546;-69
2022/01/11 04:33:56;;;;;;;24.67;12.10;;;;;;;;;;5066904;28;20417;-68
2022/01/11 04:36:22;;;;;;;25.23;12.80;;;2.70;99.90;;;;;;5074953;28;20438;-68
2022/01/11 04:38:47;;;;;;;21.60;11.03;;;2.80;99.90;;;;;;5067136;28;20471;-69
2022/01/11 04:41:13;;;;;;;23.13;12.67;;;2.70;99.90;;;;;;5067175;28;20168;-68
2022/01/11 04:43:39;;;;;;;26.73;12.70;;;2.70;99.90;;;;;;5067118;28;20191;-68
2022/01/11 04:46:05;;;;;;;30.53;13.10;;;2.80;99.90;;;;;;5067051;28;20279;-68
2022/01/11 04:48:32;;;;;;;26.80;12.37;;;2.80;99.90;;;;;;5067602;28;20175;-68
2022/01/11 04:51:04;;;;;;;28.67;12.40;;;2.80;99.90;;;;;;5066455;28;20176;-68
2022/01/11 04:53:30;;;;;;;25.87;12.40;;;2.80;99.90;;;;;;5067107;28;20897;-67
2022/01/11 04:55:56;;;;;;;26.37;12.67;;;2.90;99.90;;;;;;5066626;28;20450;-69
2022/01/11 04:58:22;;;;;;;25.03;12.30;;;2.90;99.90;;;;;;5066218;28;20831;-68
2022/01/11 05:00:49;;;;;;;30.20;11.87;;;3.00;99.90;;;;;;5067288;28;20421;-69
2022/01/11 05:03:14;;;;;;;31.00;13.17;;;3.00;99.90;;;;;;5067570;28;20482;-68
2022/01/11 05:05:40;;;;;;;30.63;12.60;;;3.00;99.90;;;;;;5071346;28;20462;-70
2022/01/11 05:08:06;;;;;;;24.20;13.00;;;;;;;;;;5067124;28;20185;-68
2022/01/11 05:10:32;;;;;;;24.80;12.10;;;3.00;99.90;;;;;;5065287;28;20177;-68
2022/01/11 05:12:58;;;;;;;23.60;11.60;;;3.10;99.90;;;;;;5066766;28;20801;-69
2022/01/11 05:15:25;;;;;;;25.93;12.80;;;3.10;99.90;;;;;;5065577;28;20442;-68
2022/01/11 05:17:51;;;;;;;20.73;10.87;;;;;;;;;;5066921;28;20454;-68
2022/01/11 05:20:17;;;;;;;23.47;12.17;;;3.20;99.90;;;;;;5066735;28;20415;-69
2022/01/11 05:22:45;;;;;;;27.23;12.27;;;3.20;99.90;;;;;;5066053;28;20477;-68
2022/01/11 05:25:13;;;;;;;21.57;11.57;;;3.10;99.90;;;;;;5067743;28;20699;-67
2022/01/11 05:27:39;;;;;;;21.97;13.00;;;3.20;99.90;;;;;;5069657;28;21021;-68
2022/01/11 05:30:07;;;;;;;20.40;12.47;;;3.20;99.90;;;;;;5071199;28;20914;-69
2022/01/11 05:32:35;;;;;;;25.57;12.53;;;;;;;;;;5068632;28;20422;-68
2022/01/11 05:35:04;;;;;;;28.30;12.30;;;3.20;99.90;;;;;;5077588;28;20425;-68
2022/01/11 05:37:30;;;;;;;22.33;11.27;;;3.20;99.90;;;;;;5081048;28;20542;-69
2022/01/11 05:39:56;;;;;;;20.97;11.80;;;3.10;99.90;;;;;;5078370;28;20518;-70
2022/01/11 05:42:23;;;;;;;25.00;11.50;;;3.10;99.90;;;;;;5070054;28;20933;-69
2022/01/11 05:44:48;;;;;;;25.53;13.30;;;3.30;99.90;;;;;;5069972;28;20215;-69
2022/01/11 05:47:14;;;;;;;25.87;11.30;;;2.90;99.90;;;;;;5070049;28;20426;-68
2022/01/11 05:49:39;;;;;;;23.30;12.70;;;3.00;99.90;;;;;;5070134;28;20211;-69
2022/01/11 05:52:05;;;;;;;31.23;12.77;;;3.20;99.90;;;;;;5069862;28;20169;-70
2022/01/11 05:54:30;;;;;;;26.97;12.33;;;3.20;99.90;;;;;;5067865;28;20180;-69
2022/01/11 05:56:56;;;;;;;20.97;13.30;;;3.10;99.90;;;;;;5069247;28;20232;-68
2022/01/11 05:59:21;;;;;;;22.17;12.53;;;3.20;99.90;;;;;;5069280;28;20185;-68
2022/01/11 06:01:47;;;;;;;20.07;11.00;;;3.20;99.90;;;;;;5069623;28;20646;-69
2022/01/11 06:04:13;;;;;;;19.90;11.27;;;3.20;99.90;;;;;;5070474;28;20164;-69
2022/01/11 06:06:38;;;;;;;22.53;12.53;;;3.20;99.90;;;;;;5072976;28;20266;-68
2022/01/11 06:09:04;;;;;;;22.03;12.60;;;3.20;99.90;;;;;;5079121;28;20227;-69
2022/01/11 06:11:30;;;;;;;19.40;12.50;;;3.30;99.90;;;;;;5069133;28;20263;-69
2022/01/11 06:13:56;;;;;;;25.27;13.07;;;3.20;99.90;;;;;;5069681;28;20176;-68
2022/01/11 06:16:22;;;;;;;23.10;12.30;;;3.20;99.90;;;;;;5065007;28;21023;-68
2022/01/11 06:18:48;;;;;;;27.63;14.80;;;3.20;99.90;;;;;;5067564;28;20654;-68
2022/01/11 06:21:14;;;;;;;30.07;16.80;;;;;;;;;;5068085;28;21214;-69
2022/01/11 06:23:40;;;;;;;24.63;13.10;;;;;;;;;;5068264;28;20484;-70
2022/01/11 06:26:06;;;;;;;27.37;13.17;;;3.20;99.90;;;;;;5069582;28;20431;-70
2022/01/11 06:28:31;;;;;;;20.97;11.83;;;3.10;99.90;;;;;;5069515;28;20548;-70
2022/01/11 06:30:57;;;;;;;24.30;11.90;;;3.20;99.90;;;;;;5068785;28;20256;-70
2022/01/11 06:33:23;;;;;;;21.40;11.20;;;3.20;99.90;;;;;;5068801;28;20542;-70
2022/01/11 06:35:48;;;;;;;17.30;10.67;;;3.10;99.90;;;;;;5074868;28;20295;-68
2022/01/11 06:38:14;;;;;;;25.80;11.50;;;3.10;99.90;;;;;;5070815;28;20214;-69
2022/01/11 06:40:40;;;;;;;21.00;12.63;;;3.10;99.90;;;;;;5069338;28;20173;-70
2022/01/11 06:43:07;;;;;;;20.53;11.20;;;3.10;99.90;;;;;;5068535;28;20168;-69
2022/01/11 06:45:33;;;;;;;20.70;11.50;;;3.00;99.90;;;;;;5068894;28;20435;-69
2022/01/11 06:48:00;;;;;;;21.53;12.20;;;3.10;99.90;;;;;;5068860;28;20429;-70
2022/01/11 06:50:26;;;;;;;22.47;11.83;;;3.10;99.90;;;;;;5062741;28;20505;-70
2022/01/11 06:52:52;;;;;;;28.90;12.73;;;3.30;99.90;;;;;;5059602;28;21190;-70
2022/01/11 06:55:19;;;;;;;22.30;11.60;;;3.30;99.90;;;;;;5067508;28;20452;-69
2022/01/11 06:57:45;;;;;;;23.87;12.07;;;3.20;99.90;;;;;;5066310;28;20605;-70
2022/01/11 07:00:12;;;;;;;19.73;11.70;;;3.20;99.90;;;;;;5076192;28;20500;-70
2022/01/11 07:02:38;;;;;;;22.13;13.30;;;3.30;99.90;;;;;;5080787;28;20563;-70
2022/01/11 07:05:04;;;;;;;21.17;12.87;;;3.30;99.90;;;;;;5074527;28;20573;-70
2022/01/11 07:07:29;;;;;;;22.27;12.23;;;3.40;99.90;;;;;;5075554;28;20191;-69
2022/01/11 07:09:55;;;;;;;22.50;12.23;;;3.40;99.90;;;;;;5066927;28;20423;-69
2022/01/11 07:12:21;;;;;;;20.13;12.00;;;3.40;99.90;;;;;;5068296;28;20233;-69
2022/01/11 07:14:46;;;;;;;23.03;11.63;;;3.40;99.90;;;;;;5064063;28;20177;-70
2022/01/11 07:17:12;;;;;;;29.87;11.83;;;3.40;99.90;;;;;;5064867;28;20212;-69
2022/01/11 07:19:37;;;;;;;23.10;11.80;;;3.40;99.90;;;;;;5069064;28;20561;-69
2022/01/11 07:22:04;;;;;;;22.07;12.60;;;;;;;;;;5066269;28;20703;-69
2022/01/11 07:24:29;;;;;;;18.40;11.70;;;3.40;99.90;;;;;;5064355;28;20214;-70
2022/01/11 07:26:55;;;;;;;19.97;12.07;;;3.50;99.90;;;;;;5071937;28;20427;-70
2022/01/11 07:29:21;;;;;;;20.30;11.43;;;3.40;99.90;;;;;;5067291;28;20636;-70
2022/01/11 07:31:46;;;;;;;25.13;13.10;;;3.50;99.90;;;;;;5065544;28;20566;-70
2022/01/11 07:34:12;;;;;;;22.73;11.60;;;3.40;99.90;;;;;;5066869;28;20180;-69
2022/01/11 07:36:37;;;;;;;26.60;12.13;;;3.40;99.90;;;;;;5069537;28;20189;-69
2022/01/11 07:39:04;;;;;;;21.87;12.60;;;3.50;99.90;;;;;;5068418;28;20183;-70
2022/01/11 07:41:30;;;;;;;20.90;12.47;;;3.40;99.90;;;;;;5068357;28;20207;-69
2022/01/11 07:43:55;;;;;;;25.80;11.97;;;3.40;99.90;;;;;;5066586;28;20455;-70
2022/01/11 07:46:21;;;;;;;22.03;11.17;;;3.40;99.90;;;;;;5067188;28;20207;-70
2022/01/11 07:48:46;;;;;;;23.97;12.40;;;3.40;99.90;;;;;;5067157;28;20173;-69
2022/01/11 07:51:12;;;;;;;22.40;12.40;;;3.40;99.90;;;;;;5067387;28;20656;-69
2022/01/11 07:53:38;;;;;;;23.70;13.07;;;3.70;99.90;;;;;;5065985;28;20203;-70
2022/01/11 07:56:03;;;;;;;21.60;11.33;;;3.50;99.90;;;;;;5064197;28;20244;-69
2022/01/11 07:58:29;;;;;;;23.10;12.30;;;3.50;99.90;;;;;;5068356;28;20226;-69
2022/01/11 08:00:55;;;;;;;23.80;12.00;;;3.50;99.90;;;;;;5068324;28;20177;-70
2022/01/11 08:03:21;;;;;;;30.03;11.70;;;;;;;;;;5068511;28;20180;-69
2022/01/11 08:05:46;;;;;;;21.93;10.90;;;3.60;99.90;;;;;;5074968;28;20192;-70
2022/01/11 08:08:12;;;;;;;21.97;12.00;;;3.60;99.90;;;;;;5068122;28;20240;-69
2022/01/11 08:10:38;;;;;;;20.80;11.90;;;;;;;;;;5067012;28;20626;-69
2022/01/11 08:13:06;;;;;;;21.53;11.50;;;3.70;99.90;;;;;;5067700;28;20286;-70
2022/01/11 08:15:33;;;;;;;17.40;11.30;;;3.80;99.90;;;;;;5067107;28;20211;-69
2022/01/11 08:17:59;;;;;;;24.60;12.90;;;3.80;99.90;;;;;;5067897;28;20508;-69
2022/01/11 08:20:24;;;;;;;32.97;12.43;;;4.10;99.90;;;;;;5068919;28;20411;-69
2022/01/11 08:22:51;;;;;;;23.27;12.03;;;3.90;99.90;;;;;;5067267;28;20632;-69
2022/01/11 08:25:17;;;;;;;19.87;12.33;;;3.90;99.90;;;;;;5068388;28;20250;-69
2022/01/11 08:27:43;;;;;;;21.60;12.10;;;3.90;99.90;;;;;;5066440;28;20861;-69
2022/01/11 08:30:09;;;;;;;25.40;12.83;;;4.00;99.90;;;;;;5067837;28;20600;-69
2022/01/11 08:32:34;;;;;;;26.03;13.63;;;4.10;99.90;;;;;;5065483;28;20295;-70
2022/01/11 08:35:00;;;;;;;27.67;13.37;;;4.30;99.90;;;;;;5065415;28;20923;-69
2022/01/11 08:37:25;;;;;;;24.60;11.83;;;4.30;99.90;;;;;;5067230;28;20208;-70
2022/01/11 08:39:51;;;;;;;21.97;12.57;;;4.30;99.90;;;;;;5073526;28;20728;-69
2022/01/11 08:42:17;;;;;;;19.73;11.93;;;4.30;99.90;;;;;;5066486;28;20647;-67
2022/01/11 08:44:49;;;;;;;21.60;11.93;;;4.20;99.90;;;;;;5071277;28;20255;-69
2022/01/11 08:47:16;;;;;;;17.83;11.27;;;4.30;99.90;;;;;;5065787;28;20261;-68
2022/01/11 08:49:41;;;;;;;23.47;12.30;;;4.40;99.90;;;;;;5063124;28;20418;-66
2022/01/11 08:52:08;;;;;;;20.90;11.40;;;4.50;99.90;;;;;;5067329;28;20839;-66
2022/01/11 08:54:33;;;;;;;18.90;10.63;;;4.50;99.90;;;;;;5066703;28;20743;-67
2022/01/11 08:57:00;;;;;;;23.13;12.90;;;4.70;99.90;;;;;;5066381;28;20454;-67
2022/01/11 08:59:26;;;;;;;27.83;12.23;;;4.70;99.90;;;;;;5067789;28;20246;-67
2022/01/11 09:01:55;;;;;;;23.30;12.33;;;4.70;99.90;;;;;;5071543;28;20781;-68
2022/01/11 09:04:21;;;;;;;22.37;12.30;;;4.70;99.90;;;;;;5071676;28;20545;-68
2022/01/11 09:06:47;;;;;;;26.30;14.50;;;4.80;99.90;;;;;;5075724;28;20459;-68
2022/01/11 09:09:13;;;;;;;25.53;13.60;;;4.80;99.90;;;;;;5069796;28;20525;-67
2022/01/11 09:11:41;;;;;;;21.87;12.80;;;4.90;99.90;;;;;;5070365;28;20202;-66
2022/01/11 09:14:07;;;;;;;24.80;12.17;;;5.00;99.90;;;;;;5070388;28;20196;-67
2022/01/11 09:16:32;;;;;;;20.93;12.53;;;5.10;99.90;;;;;;5069680;28;20555;-67
2022/01/11 09:18:58;;;;;;;18.27;11.17;;;5.10;99.90;;;;;;5070095;28;20333;-67
2022/01/11 09:21:24;;;;;;;19.60;12.10;;;5.80;99.90;;;;;;5069051;28;20657;-67
2022/01/11 09:23:51;;;;;;;22.33;12.77;;;5.30;99.90;;;;;;5068838;28;20179;-67
2022/01/11 09:26:17;;;;;;;24.20;12.67;;;5.50;99.90;;;;;;5070298;28;20692;-68
2022/01/11 09:28:42;;;;;;;24.17;12.70;;;5.90;99.90;;;;;;5070870;28;20458;-67
2022/01/11 09:31:08;;;;;;;21.53;12.80;;;5.80;99.90;;;;;;5070085;28;20523;-68
2022/01/11 09:33:34;;;;;;;21.73;12.13;;;6.00;99.90;;;;;;5069393;28;20179;-67
2022/01/11 09:36:00;;;;;;;20.57;11.57;;;;;;;;;;5078612;28;20236;-67
2022/01/11 09:38:26;;;;;;;26.37;12.80;;;5.80;99.90;;;;;;5070856;28;20661;-68
2022/01/11 09:40:55;;;;;;;27.17;14.00;;;5.90;99.90;;;;;;5069272;28;20415;-68
2022/01/11 09:43:22;;;;;;;23.83;13.23;;;5.90;99.90;;;;;;5065412;28;20495;-68
2022/01/11 09:45:52;;;;;;;23.77;12.33;;;5.90;99.90;;;;;;5066688;28;20500;-68
2022/01/11 09:48:20;;;;;;;26.97;12.63;;;6.20;99.90;;;;;;5071165;28;20525;-67
2022/01/11 09:50:45;;;;;;;22.63;12.83;;;6.10;99.90;;;;;;5078421;28;20426;-67
2022/01/11 09:53:11;;;;;;;22.87;11.77;;;;;;;;;;5072658;28;20434;-68
2022/01/11 09:55:38;;;;;;;24.47;12.40;;;5.80;99.90;;;;;;5070828;28;20201;-67
2022/01/11 09:58:04;;;;;;;19.43;12.00;;;5.80;99.90;;;;;;5069840;28;20246;-68
2022/01/11 10:00:30;;;;;;;20.90;12.63;;;5.80;99.90;;;;;;5070807;28;20415;-67
2022/01/11 10:02:55;;;;;;;22.00;13.53;;;5.90;99.90;;;;;;5070474;28;20422;-67
2022/01/11 10:05:23;;;;;;;23.30;12.90;;;5.90;99.90;;;;;;5070318;28;20257;-67
2022/01/11 10:07:48;;;;;;;25.33;13.00;;;5.90;99.90;;;;;;5075222;28;20208;-68
2022/01/11 10:10:21;;;;;;;24.57;12.50;;;6.40;99.90;;;;;;5070232;28;20917;-68
2022/01/11 10:12:55;;;;;;;27.10;12.77;;;6.00;99.90;;;;;;5070398;28;20202;-68
2022/01/11 10:15:35;;;;;;;17.60;11.80;;;6.10;99.90;;;;;;5070373;28;20442;-68
2022/01/11 10:18:02;;;;;;;26.90;12.57;;;6.10;99.90;;;;;;5069753;28;20466;-68
2022/01/11 10:20:27;;;;;;;28.60;15.10;;;6.00;99.90;;;;;;5070458;28;20937;-68
2022/01/11 10:23:01;;;;;;;25.20;13.73;;;6.10;99.90;;;;;;5069210;28;20413;-68
2022/01/11 10:25:29;;;;;;;23.00;12.67;;;6.30;99.90;;;;;;5068939;28;20693;-68
2022/01/11 10:28:02;;;;;;;20.70;13.07;;;6.30;99.90;;;;;;5068116;28;20503;-68
2022/01/11 10:30:29;;;;;;;19.23;11.50;;;6.40;99.90;;;;;;5069754;28;20433;-68
2022/01/11 10:32:57;;;;;;;21.43;12.80;;;6.50;99.90;;;;;;5069506;28;20436;-68
2022/01/11 10:35:29;;;;;;;24.33;12.53;;;6.50;99.90;;;;;;5070109;28;20462;-69
2022/01/11 10:37:59;;;;;;;22.53;12.37;;;6.50;99.90;;;;;;5072910;28;20828;-68
2022/01/11 10:40:30;;;;;;;27.40;12.90;;;6.60;99.90;;;;;;5070037;28;20486;-68
2022/01/11 10:42:58;;;;;;;19.77;12.10;;;6.80;99.90;;;;;;5069255;28;20936;-69
2022/01/11 10:45:35;;;;;;;20.63;12.80;;;6.80;99.90;;;;;;5069389;28;20446;-69
2022/01/11 10:48:15;;;;;;;18.70;11.57;;;6.80;99.90;;;;;;5066064;28;20430;-69
2022/01/11 10:50:42;;;;;;;19.60;11.90;;;7.00;99.90;;;;;;5064091;28;20434;-70
2022/01/11 10:53:17;;;;;;;18.17;11.50;;;7.10;99.90;;;;;;5065434;28;20845;-69
2022/01/11 10:55:47;;;;;;;18.63;11.03;;;7.20;99.90;;;;;;5067607;28;20441;-70
2022/01/11 10:58:12;;;;;;;25.00;12.23;;;7.20;99.90;;;;;;5068059;28;20489;-69
2022/01/11 11:00:43;;;;;;;18.37;10.43;;;7.20;99.90;;;;;;5069328;28;20423;-69
2022/01/11 11:03:17;;;;;;;23.20;13.87;;;7.60;99.90;;;;;;5069394;28;20164;-70
2022/01/11 11:05:58;;;;;;;21.43;13.10;;;7.30;99.90;;;;;;5071515;28;20426;-69
2022/01/11 11:08:26;;;;;;;26.47;13.03;;;7.30;99.90;;;;;;5068277;28;20722;-69
2022/01/11 11:11:01;;;;;;;20.43;11.93;;;7.20;99.90;;;;;;5067764;28;20434;-69
2022/01/11 11:13:28;;;;;;;19.80;12.00;;;7.30;99.90;;;;;;5067850;28;20422;-69
2022/01/11 11:15:57;;;;;;;20.83;10.93;;;7.50;99.90;;;;;;5068228;28;20657;-69
2022/01/11 11:18:30;;;;;;;22.90;11.40;;;7.60;99.90;;;;;;5077024;28;20458;-69
2022/01/11 11:20:56;;;;;;;21.67;11.43;;;7.50;99.90;;;;;;5079587;28;20418;-69
2022/01/11 11:23:22;;;;;;;18.70;11.83;;;7.60;99.90;;;;;;5074215;28;20457;-70
2022/01/11 11:25:48;;;;;;;23.07;12.03;;;7.60;99.90;;;;;;5065973;28;20470;-71
2022/01/11 11:28:14;;;;;;;26.60;12.93;;;7.80;99.90;;;;;;5068061;28;20172;-69
2022/01/11 11:30:40;;;;;;;23.97;12.90;;;;;;;;;;5068399;28;20180;-69
2022/01/11 11:33:06;;;;;;;21.73;12.83;;;7.60;99.90;;;;;;5068266;28;20168;-69
2022/01/11 11:35:33;;;;;;;20.00;10.90;;;7.80;99.90;;;;;;5075168;28;20801;-69
2022/01/11 11:38:02;;;;;;;15.80;11.07;;;7.80;99.90;;;;;;5067673;28;20540;-69
2022/01/11 11:40:30;;;;;;;18.13;11.87;;;7.90;99.90;;;;;;5068108;28;20919;-68
2022/01/11 11:42:59;;;;;;;22.20;12.40;;;7.80;99.90;;;;;;5075207;28;20402;-71
2022/01/11 11:45:36;;;;;;;24.80;12.70;;;7.80;99.90;;;;;;5066330;28;20514;-68
2022/01/11 11:48:23;;;;;;;19.63;12.03;;;8.00;99.90;;;;;;5067099;28;20411;-69
2022/01/11 11:50:57;;;;;;;26.37;11.73;;;7.90;99.90;;;;;;5068097;28;20430;-69
2022/01/11 11:53:34;;;;;;;18.27;9.73;;;8.10;99.90;;;;;;5068206;28;20427;-69
2022/01/11 11:56:21;;;;;;;20.80;13.53;;;8.30;99.90;;;;;;5080753;28;20447;-69
2022/01/11 11:58:53;;;;;;;28.67;12.93;;;8.30;99.90;;;;;;5047491;28;20600;-69
2022/01/11 12:01:42;;;;;;;20.40;11.10;;;8.20;99.90;;;;;;5068299;28;20418;-68
2022/01/11 12:04:12;;;;;;;24.67;11.83;;;8.40;99.90;;;;;;5066648;28;20774;-69
2022/01/11 12:06:38;;;;;;;8.03;5.40;;;8.50;99.90;;;;;;5075679;28;20445;-69
2022/01/11 12:09:07;;;;;;;7.30;5.17;;;8.70;99.90;;;;;;5084256;28;20447;-69
2022/01/11 12:11:42;;;;;;;8.80;5.40;;;8.70;99.90;;;;;;5067788;28;20426;-69
2022/01/11 12:14:26;;;;;;;5.50;4.50;;;8.40;99.90;;;;;;5068369;28;20792;-69
2022/01/11 12:16:52;;;;;;;6.10;4.60;;;8.40;99.90;;;;;;5067176;28;20524;-70
2022/01/11 12:19:51;;;;;;;7.10;4.57;;;8.50;99.90;;;;;;5067034;28;20451;-69
2022/01/11 12:22:22;;;;;;;7.30;4.50;;;8.60;99.90;;;;;;5033995;28;20177;-69
2022/01/11 12:24:50;;;;;;;8.50;4.70;;;8.70;99.90;;;;;;5066064;28;20422;-69
2022/01/11 12:27:19;;;;;;;6.93;4.70;;;8.70;99.90;;;;;;5066346;28;20438;-69
2022/01/11 12:29:57;;;;;;;6.73;4.70;;;8.80;99.90;;;;;;5066805;28;20422;-70
2022/01/11 12:32:23;;;;;;;4.50;4.00;;;8.90;99.90;;;;;;5056953;28;20429;-69
2022/01/11 12:34:53;;;;;;;9.30;5.07;;;9.00;99.90;;;;;;5070637;28;20505;-70
2022/01/11 12:37:31;;;;;;;8.13;4.77;;;9.00;99.90;;;;;;5080069;28;20450;-69
2022/01/11 12:40:22;;;;;;;6.33;4.87;;;9.00;99.90;;;;;;5071926;28;20418;-70
2022/01/11 12:42:54;;;;;;;8.20;4.67;;;9.00;99.90;;;;;;5064960;28;20414;-69
2022/01/11 12:46:00;;;;;;;8.90;5.00;;;9.10;99.90;;;;;;5071521;28;20660;-69
2022/01/11 12:48:50;;;;;;;6.40;4.33;;;9.10;99.90;;;;;;5074669;28;20419;-69
2022/01/11 12:51:52;;;;;;;6.37;4.30;;;9.20;99.90;;;;;;5071821;28;20415;-70
2022/01/11 12:54:20;;;;;;;5.37;4.07;;;9.30;99.90;;;;;;5066694;28;20422;-69